createdAt,value
2023-01-21T00:01:06.477Z,4.89
2023-01-21T00:03:33.282Z,4.97
2023-01-21T00:05:59.890Z,4.93
2023-01-21T00:08:27.089Z,5.03
2023-01-21T00:10:54.062Z,4.99
2023-01-21T00:13:20.674Z,5.09
2023-01-21T00:15:47.359Z,5.10
2023-01-21T00:18:13.926Z,5.17
2023-01-21T00:20:40.495Z,5.28
2023-01-21T00:23:07.011Z,5.24
2023-01-21T00:25:33.529Z,5.17
2023-01-21T00:28:00.295Z,5.22
2023-01-21T00:30:27.081Z,5.21
2023-01-21T00:32:53.865Z,5.06
2023-01-21T00:35:20.527Z,4.92
2023-01-21T00:37:47.039Z,4.75
2023-01-21T00:40:13.900Z,4.81
2023-01-21T00:42:40.460Z,4.81
2023-01-21T00:45:07.831Z,4.68
2023-01-21T00:47:34.235Z,4.65
2023-01-21T00:50:00.841Z,4.72
2023-01-21T00:52:27.631Z,4.73
2023-01-21T00:54:54.426Z,4.73
2023-01-21T00:57:21.066Z,4.71
2023-01-21T00:59:47.936Z,4.71
2023-01-21T01:02:14.521Z,4.72
2023-01-21T01:04:41.075Z,4.74
2023-01-21T01:07:07.636Z,4.52
2023-01-21T01:09:34.238Z,4.43
2023-01-21T01:12:00.976Z,4.44
2023-01-21T01:14:27.627Z,4.50
2023-01-21T01:16:54.464Z,4.42
2023-01-21T01:19:21.053Z,4.44
2023-01-21T01:21:47.582Z,4.45
2023-01-21T01:24:14.147Z,4.49
2023-01-21T01:26:42.239Z,4.51
2023-01-21T01:29:12.114Z,4.55
2023-01-21T01:31:38.778Z,4.53
2023-01-21T01:34:05.494Z,4.60
2023-01-21T01:36:32.028Z,4.62
2023-01-21T01:38:59.178Z,4.55
2023-01-21T01:41:29.434Z,4.41
2023-01-21T01:44:06.220Z,4.26
2023-01-21T01:46:35.724Z,4.22
2023-01-21T01:49:16.968Z,4.27
2023-01-21T01:51:49.260Z,4.22
2023-01-21T01:54:28.190Z,3.97
2023-01-21T01:56:59.528Z,3.96
2023-01-21T01:59:26.796Z,4.15
2023-01-21T02:01:53.767Z,4.20
2023-01-21T02:04:23.252Z,4.09
2023-01-21T02:06:52.575Z,4.22
2023-01-21T02:09:19.353Z,4.23
2023-01-21T02:11:46.074Z,4.16
2023-01-21T02:14:12.734Z,4.16
2023-01-21T02:17:03.837Z,4.17
2023-01-21T02:20:04.548Z,4.33
2023-01-21T02:22:43.050Z,4.32
2023-01-21T02:25:28.689Z,4.42
2023-01-21T02:28:15.215Z,4.44
2023-01-21T02:30:53.611Z,4.39
2023-01-21T02:33:31.968Z,4.50
2023-01-21T02:36:12.525Z,4.59
2023-01-21T02:38:56.313Z,4.60
2023-01-21T02:41:41.443Z,4.61
2023-01-21T02:44:22.455Z,4.63
2023-01-21T02:46:55.670Z,4.56
2023-01-21T02:49:34.246Z,4.64
2023-01-21T02:52:00.780Z,4.62
2023-01-21T02:54:39.177Z,4.42
2023-01-21T02:57:07.806Z,4.59
2023-01-21T02:59:35.986Z,4.65
2023-01-21T03:02:17.857Z,4.70
2023-01-21T03:04:53.663Z,4.70
2023-01-21T03:07:36.768Z,4.61
2023-01-21T03:10:14.222Z,4.66
2023-01-21T03:12:57.246Z,4.58
2023-01-21T03:15:46.952Z,4.64
2023-01-21T03:18:24.293Z,4.71
2023-01-21T03:20:56.540Z,4.81
2023-01-21T03:23:30.598Z,4.83
2023-01-21T03:25:58.708Z,4.81
2023-01-21T03:28:29.020Z,4.85
2023-01-21T03:31:10.831Z,4.75
2023-01-21T03:33:41.541Z,4.78
2023-01-21T03:36:20.881Z,4.82
2023-01-21T03:38:51.763Z,4.82
2023-01-21T03:41:24.062Z,4.80
2023-01-21T03:43:51.804Z,4.81
2023-01-21T03:46:26.224Z,4.83
2023-01-21T03:48:59.577Z,4.82
2023-01-21T03:51:36.210Z,4.87
2023-01-21T03:54:02.829Z,4.63
2023-01-21T03:56:29.438Z,4.71
2023-01-21T03:58:56.260Z,4.59
2023-01-21T04:01:22.895Z,4.51
2023-01-21T04:03:49.609Z,4.61
2023-01-21T04:06:21.374Z,4.58
2023-01-21T04:08:47.942Z,4.63
2023-01-21T04:11:15.033Z,4.66
2023-01-21T04:13:41.660Z,4.49
2023-01-21T04:16:08.922Z,4.54
2023-01-21T04:18:35.639Z,4.61
2023-01-21T04:21:02.393Z,4.55
2023-01-21T04:23:28.967Z,4.55
2023-01-21T04:25:55.476Z,4.51
2023-01-21T04:28:22.047Z,4.45
2023-01-21T04:30:48.653Z,4.61
2023-01-21T04:33:15.787Z,4.57
2023-01-21T04:35:42.336Z,4.61
2023-01-21T04:38:08.989Z,4.65
2023-01-21T04:40:35.694Z,4.68
2023-01-21T04:43:02.292Z,4.81
2023-01-21T04:45:28.830Z,4.80
2023-01-21T04:47:55.464Z,4.86
2023-01-21T04:50:22.314Z,4.81
2023-01-21T04:52:48.843Z,4.73
2023-01-21T04:55:15.468Z,4.70
2023-01-21T04:57:42.068Z,4.69
2023-01-21T05:00:09.373Z,4.75
2023-01-21T05:02:36.035Z,4.73
2023-01-21T05:05:03.154Z,4.62
2023-01-21T05:07:30.489Z,4.62
2023-01-21T05:09:56.893Z,4.68
2023-01-21T05:12:23.660Z,4.66
2023-01-21T05:14:54.395Z,4.61
2023-01-21T05:17:21.441Z,4.62
2023-01-21T05:19:47.943Z,4.68
2023-01-21T05:22:14.439Z,4.76
2023-01-21T05:24:41.005Z,4.85
2023-01-21T05:27:07.521Z,4.93
2023-01-21T05:29:34.185Z,4.94
2023-01-21T05:32:00.914Z,4.90
2023-01-21T05:34:27.527Z,4.90
2023-01-21T05:36:54.075Z,4.77
2023-01-21T05:39:20.672Z,4.87
2023-01-21T05:41:47.286Z,4.91
2023-01-21T05:44:14.664Z,4.97
2023-01-21T05:46:42.570Z,4.84
2023-01-21T05:49:09.115Z,4.81
2023-01-21T05:51:35.671Z,4.86
2023-01-21T05:54:02.266Z,4.87
2023-01-21T05:56:28.997Z,4.76
2023-01-21T05:58:55.729Z,4.48
2023-01-21T06:01:22.395Z,4.59
2023-01-21T06:03:48.925Z,4.65
2023-01-21T06:06:15.780Z,4.52
2023-01-21T06:08:42.352Z,4.61
2023-01-21T06:11:08.930Z,4.71
2023-01-21T06:13:35.766Z,4.83
2023-01-21T06:16:02.394Z,4.82
2023-01-21T06:18:28.941Z,4.96
2023-01-21T06:20:59.195Z,5.11
2023-01-21T06:23:26.076Z,5.21
2023-01-21T06:25:52.911Z,5.28
2023-01-21T06:28:19.558Z,5.26
2023-01-21T06:30:47.072Z,5.26
2023-01-21T06:33:13.743Z,5.29
2023-01-21T06:35:40.306Z,5.32
2023-01-21T06:38:06.888Z,5.41
2023-01-21T06:40:33.512Z,5.35
2023-01-21T06:43:00.382Z,5.43
2023-01-21T06:45:27.258Z,5.48
2023-01-21T06:47:53.842Z,5.41
2023-01-21T06:50:20.398Z,5.12
2023-01-21T06:52:48.339Z,5.13
2023-01-21T06:55:16.052Z,5.18
2023-01-21T06:57:43.406Z,5.28
2023-01-21T07:00:11.127Z,5.47
2023-01-21T07:02:37.946Z,5.36
2023-01-21T07:05:05.400Z,5.43
2023-01-21T07:07:31.995Z,5.57
2023-01-21T07:09:58.692Z,5.64
2023-01-21T07:12:25.358Z,5.70
2023-01-21T07:14:51.901Z,5.83
2023-01-21T07:17:18.443Z,6.01
2023-01-21T07:19:44.957Z,6.08
2023-01-21T07:22:11.476Z,6.14
2023-01-21T07:24:38.246Z,6.34
2023-01-21T07:27:06.241Z,6.36
2023-01-21T07:29:32.874Z,6.47
2023-01-21T07:31:59.484Z,6.33
2023-01-21T07:34:26.077Z,6.36
2023-01-21T07:36:52.660Z,6.26
2023-01-21T07:39:19.228Z,6.18
2023-01-21T07:41:45.798Z,6.27
2023-01-21T07:44:12.355Z,6.30
2023-01-21T07:46:38.949Z,6.25
2023-01-21T07:49:05.532Z,6.21
2023-01-21T07:51:32.139Z,6.17
2023-01-21T07:53:59.025Z,6.24
2023-01-21T07:56:26.911Z,6.54
2023-01-21T07:58:53.674Z,6.69
2023-01-21T08:01:20.244Z,6.92
2023-01-21T08:03:46.795Z,6.89
2023-01-21T08:06:13.362Z,7.10
2023-01-21T08:08:39.944Z,7.15
2023-01-21T08:11:06.520Z,7.39
2023-01-21T08:13:33.173Z,7.63
2023-01-21T08:15:59.774Z,7.98
2023-01-21T08:18:26.378Z,8.43
2023-01-21T08:20:57.306Z,8.72
2023-01-21T08:23:24.645Z,8.56
2023-01-21T08:25:51.178Z,8.58
2023-01-21T08:28:17.752Z,8.53
2023-01-21T08:30:44.763Z,8.29
2023-01-21T08:33:11.878Z,8.13
2023-01-21T08:35:38.540Z,8.05
2023-01-21T08:38:05.596Z,8.11
2023-01-21T08:40:32.209Z,8.14
2023-01-21T08:43:00.691Z,8.18
2023-01-21T08:45:28.312Z,8.18
2023-01-21T08:47:55.000Z,8.20
2023-01-21T08:50:22.240Z,8.18
2023-01-21T08:52:53.259Z,8.08
2023-01-21T08:55:20.289Z,8.08
2023-01-21T08:57:47.131Z,8.17
2023-01-21T09:00:14.584Z,8.21
2023-01-21T09:02:41.127Z,8.28
2023-01-21T09:05:08.157Z,8.19
2023-01-21T09:07:34.716Z,8.03
2023-01-21T09:10:01.236Z,8.02
2023-01-21T09:12:28.465Z,8.08
2023-01-21T09:14:55.068Z,8.11
2023-01-21T09:17:22.828Z,8.11
2023-01-21T09:19:49.513Z,8.06
2023-01-21T09:22:16.444Z,8.03
2023-01-21T09:24:43.128Z,8.14
2023-01-21T09:27:10.388Z,8.50
2023-01-21T09:29:36.971Z,8.75
2023-01-21T09:32:05.348Z,8.98
2023-01-21T09:34:34.029Z,9.10
2023-01-21T09:37:03.130Z,9.16
2023-01-21T09:39:29.647Z,9.24
2023-01-21T09:41:56.879Z,9.32
2023-01-21T09:44:35.510Z,9.33
2023-01-21T09:47:32.026Z,9.39
2023-01-21T09:50:16.783Z,9.38
2023-01-21T09:52:44.779Z,9.46
2023-01-21T09:55:19.763Z,9.47
2023-01-21T09:58:20.510Z,9.51
2023-01-21T10:00:52.600Z,9.59
2023-01-21T10:03:33.057Z,9.57
2023-01-21T10:06:22.092Z,9.56
2023-01-21T10:08:57.666Z,9.47
2023-01-21T10:11:44.593Z,9.54
2023-01-21T10:14:38.539Z,9.61
2023-01-21T10:17:29.882Z,9.65
2023-01-21T10:20:17.217Z,9.71
2023-01-21T10:22:52.242Z,9.78
2023-01-21T10:25:29.633Z,9.81
2023-01-21T10:28:06.506Z,9.90
2023-01-21T10:30:40.204Z,9.89
2023-01-21T10:33:16.287Z,9.89
2023-01-21T10:36:22.679Z,9.90
2023-01-21T10:39:13.415Z,9.98
2023-01-21T10:41:55.595Z,10.11
2023-01-21T10:44:40.414Z,10.17
2023-01-21T10:47:18.619Z,10.22
2023-01-21T10:50:00.312Z,10.27
2023-01-21T10:52:48.592Z,10.30
2023-01-21T10:55:35.571Z,10.33
2023-01-21T10:58:03.834Z,10.28
2023-01-21T11:00:39.133Z,10.24
2023-01-21T11:03:16.259Z,10.28
2023-01-21T11:05:44.072Z,10.31
2023-01-21T11:08:20.010Z,10.30
2023-01-21T11:10:48.829Z,10.39
2023-01-21T11:13:15.564Z,10.44
2023-01-21T11:15:48.173Z,10.39
2023-01-21T11:18:36.488Z,10.34
2023-01-21T11:21:16.422Z,10.42
2023-01-21T11:23:53.293Z,10.37
2023-01-21T11:26:32.135Z,10.38
2023-01-21T11:29:19.054Z,10.36
2023-01-21T11:31:49.317Z,10.33
2023-01-21T11:34:18.696Z,10.31
2023-01-21T11:36:54.354Z,10.33
2023-01-21T11:39:23.803Z,10.32
2023-01-21T11:41:58.636Z,10.30
2023-01-21T11:44:25.606Z,10.26
2023-01-21T11:46:52.664Z,10.28
2023-01-21T11:49:28.289Z,10.32
2023-01-21T11:52:15.887Z,10.38
2023-01-21T11:54:43.358Z,10.31
2023-01-21T11:57:30.173Z,10.36
2023-01-21T12:00:05.579Z,10.31
2023-01-21T12:02:39.317Z,10.38
2023-01-21T12:05:36.072Z,10.36
2023-01-21T12:08:06.207Z,10.36
2023-01-21T12:10:38.544Z,10.34
2023-01-21T12:13:17.377Z,10.36
2023-01-21T12:16:06.223Z,10.43
2023-01-21T12:18:41.945Z,10.44
2023-01-21T12:21:16.200Z,10.39
2023-01-21T12:23:53.217Z,10.33
2023-01-21T12:26:42.634Z,10.22
2023-01-21T12:29:33.254Z,10.26
2023-01-21T12:32:15.327Z,10.13
2023-01-21T12:34:53.502Z,10.12
2023-01-21T12:37:28.649Z,10.20
2023-01-21T12:39:59.611Z,10.10
2023-01-21T12:42:34.273Z,10.10
2023-01-21T12:45:06.588Z,10.05
2023-01-21T12:47:33.142Z,10.02
2023-01-21T12:50:05.498Z,9.99
2023-01-21T12:52:45.377Z,9.99
2023-01-21T12:55:52.418Z,9.93
2023-01-21T12:58:23.415Z,9.76
2023-01-21T13:00:52.669Z,9.75
2023-01-21T13:03:47.407Z,9.72
2023-01-21T13:06:24.010Z,9.74
2023-01-21T13:09:16.402Z,9.71
2023-01-21T13:11:58.513Z,9.75
2023-01-21T13:14:38.878Z,9.68
2023-01-21T13:17:29.111Z,9.64
2023-01-21T13:19:55.767Z,9.64
2023-01-21T13:22:44.686Z,9.67
2023-01-21T13:25:33.348Z,9.74
2023-01-21T13:28:21.453Z,9.90
2023-01-21T13:30:57.308Z,9.94
2023-01-21T13:33:34.041Z,9.91
2023-01-21T13:36:03.318Z,9.83
2023-01-21T13:38:47.548Z,9.84
2023-01-21T13:41:55.827Z,9.73
2023-01-21T13:44:31.125Z,9.74
2023-01-21T13:47:09.792Z,9.77
2023-01-21T13:50:00.846Z,9.84
2023-01-21T13:52:42.195Z,9.99
2023-01-21T13:55:22.267Z,9.98
2023-01-21T13:58:30.398Z,10.16
2023-01-21T14:01:03.253Z,10.11
2023-01-21T14:03:51.695Z,10.10
2023-01-21T14:06:44.411Z,10.13
2023-01-21T14:09:22.815Z,10.19
2023-01-21T14:11:57.848Z,10.19
2023-01-21T14:15:09.451Z,10.22
2023-01-21T14:17:55.356Z,10.26
2023-01-21T14:20:51.937Z,10.27
2023-01-21T14:23:53.273Z,10.23
2023-01-21T14:27:14.896Z,10.18
2023-01-21T14:29:46.816Z,10.23
2023-01-21T14:32:21.087Z,10.34
2023-01-21T14:35:01.742Z,10.42
2023-01-21T14:37:39.337Z,10.44
2023-01-21T14:40:31.833Z,10.47
2023-01-21T14:42:59.390Z,10.49
2023-01-21T14:46:19.497Z,10.41
2023-01-21T14:48:56.090Z,10.37
2023-01-21T14:51:22.876Z,10.27
2023-01-21T14:53:58.138Z,10.23
2023-01-21T14:56:35.511Z,10.15
2023-01-21T14:59:25.315Z,10.09
2023-01-21T15:02:01.615Z,10.04
2023-01-21T15:04:39.083Z,10.14
2023-01-21T15:07:17.425Z,10.06
2023-01-21T15:09:53.084Z,10.11
2023-01-21T15:12:30.526Z,10.19
2023-01-21T15:15:00.144Z,10.30
2023-01-21T15:17:54.359Z,10.31
2023-01-21T15:20:42.718Z,10.32
2023-01-21T15:23:27.830Z,10.37
2023-01-21T15:26:19.308Z,10.37
2023-01-21T15:28:49.556Z,10.35
2023-01-21T15:31:18.937Z,10.45
2023-01-21T15:33:47.065Z,10.47
2023-01-21T15:36:31.222Z,10.45
2023-01-21T15:39:03.112Z,10.36
2023-01-21T15:42:08.334Z,10.29
2023-01-21T15:44:50.016Z,10.27
2023-01-21T15:48:04.156Z,10.29
2023-01-21T15:50:51.310Z,10.26
2023-01-21T15:53:45.507Z,10.11
2023-01-21T15:56:29.516Z,9.93
2023-01-21T15:59:06.294Z,9.92
2023-01-21T16:01:38.093Z,9.78
2023-01-21T16:04:07.752Z,9.80
2023-01-21T16:07:04.971Z,9.73
2023-01-21T16:09:57.944Z,9.64
2023-01-21T16:12:33.553Z,9.60
2023-01-21T16:15:28.642Z,9.64
2023-01-21T16:18:10.337Z,9.63
2023-01-21T16:20:37.439Z,9.42
2023-01-21T16:23:06.974Z,9.31
2023-01-21T16:25:33.817Z,9.38
2023-01-21T16:28:00.623Z,9.41
2023-01-21T16:30:30.818Z,9.44
2023-01-21T16:33:26.802Z,9.52
2023-01-21T16:35:57.002Z,9.60
2023-01-21T16:38:29.044Z,9.64
2023-01-21T16:41:07.824Z,9.66
2023-01-21T16:43:37.239Z,9.67
2023-01-21T16:46:10.570Z,9.80
2023-01-21T16:48:37.243Z,9.82
2023-01-21T16:51:04.539Z,9.84
2023-01-21T16:53:31.236Z,9.93
2023-01-21T16:55:59.420Z,9.95
2023-01-21T16:58:32.671Z,9.91
2023-01-21T17:01:16.176Z,9.98
2023-01-21T17:03:44.101Z,10.05
2023-01-21T17:06:24.394Z,10.03
2023-01-21T17:09:00.105Z,10.05
2023-01-21T17:11:27.444Z,10.10
2023-01-21T17:13:54.281Z,10.14
2023-01-21T17:16:33.350Z,10.07
2023-01-21T17:19:17.825Z,10.05
2023-01-21T17:21:48.212Z,10.15
2023-01-21T17:24:23.099Z,10.19
2023-01-21T17:26:53.952Z,10.16
2023-01-21T17:29:29.589Z,10.16
2023-01-21T17:31:58.850Z,10.14
2023-01-21T17:34:31.409Z,10.11
2023-01-21T17:36:58.683Z,9.96
2023-01-21T17:39:44.137Z,10.11
2023-01-21T17:42:22.686Z,10.05
2023-01-21T17:45:02.312Z,10.02
2023-01-21T17:47:33.978Z,10.01
2023-01-21T17:50:05.709Z,9.97
2023-01-21T17:52:32.343Z,9.88
2023-01-21T17:55:28.658Z,9.82
2023-01-21T17:57:55.919Z,9.86
2023-01-21T18:00:30.341Z,9.92
2023-01-21T18:02:57.782Z,9.90
2023-01-21T18:05:24.677Z,9.80
2023-01-21T18:07:51.448Z,9.65
2023-01-21T18:10:22.926Z,9.64
2023-01-21T18:12:49.655Z,9.59
2023-01-21T18:15:18.519Z,9.54
2023-01-21T18:17:51.434Z,9.60
2023-01-21T18:20:23.214Z,9.64
2023-01-21T18:22:50.806Z,9.70
2023-01-21T18:25:18.312Z,9.73
2023-01-21T18:27:47.529Z,9.71
2023-01-21T18:30:19.827Z,9.90
2023-01-21T18:32:46.980Z,9.88
2023-01-21T18:35:19.781Z,9.93
2023-01-21T18:37:46.590Z,9.96
2023-01-21T18:40:17.732Z,9.98
2023-01-21T18:42:50.749Z,10.01
2023-01-21T18:45:20.600Z,9.94
2023-01-21T18:47:48.690Z,9.95
2023-01-21T18:50:18.283Z,9.98
2023-01-21T18:52:44.881Z,10.00
2023-01-21T18:55:13.258Z,10.06
2023-01-21T18:57:43.000Z,10.05
2023-01-21T19:00:20.547Z,9.97
2023-01-21T19:02:47.429Z,9.87
2023-01-21T19:05:14.839Z,9.88
2023-01-21T19:07:41.902Z,9.75
2023-01-21T19:10:14.482Z,9.82
2023-01-21T19:12:41.245Z,9.87
2023-01-21T19:15:12.031Z,9.84
2023-01-21T19:17:40.201Z,9.85
2023-01-21T19:20:14.020Z,9.90
2023-01-21T19:22:40.668Z,9.78
2023-01-21T19:25:07.782Z,9.83
2023-01-21T19:27:38.268Z,9.82
2023-01-21T19:30:24.683Z,9.82
2023-01-21T19:32:52.761Z,9.89
2023-01-21T19:35:42.607Z,9.94
2023-01-21T19:38:16.653Z,9.91
2023-01-21T19:40:43.671Z,9.88
2023-01-21T19:43:14.418Z,9.89
2023-01-21T19:45:42.598Z,9.85
2023-01-21T19:48:17.457Z,9.76
2023-01-21T19:50:44.362Z,9.82
2023-01-21T19:53:15.580Z,9.83
2023-01-21T19:55:44.180Z,9.66
2023-01-21T19:58:19.835Z,9.60
2023-01-21T20:00:51.144Z,9.66
2023-01-21T20:03:19.621Z,9.65
2023-01-21T20:05:49.752Z,9.68
2023-01-21T20:08:20.727Z,9.68
2023-01-21T20:10:47.430Z,9.70
2023-01-21T20:13:15.717Z,9.69
2023-01-21T20:15:44.527Z,9.70
2023-01-21T20:18:18.403Z,9.30
2023-01-21T20:20:45.278Z,9.06
2023-01-21T20:23:16.604Z,9.25
2023-01-21T20:25:45.519Z,9.35
2023-01-21T20:28:24.165Z,9.41
2023-01-21T20:30:52.237Z,9.27
2023-01-21T20:33:23.961Z,8.99
2023-01-21T20:35:55.910Z,8.92
2023-01-21T20:38:32.711Z,9.07
2023-01-21T20:41:00.729Z,8.97
2023-01-21T20:43:28.860Z,8.85
2023-01-21T20:46:16.856Z,8.86
2023-01-21T20:48:44.418Z,9.06
2023-01-21T20:51:11.201Z,9.18
2023-01-21T20:53:38.471Z,9.26
2023-01-21T20:56:17.536Z,9.32
2023-01-21T20:58:47.606Z,9.36
2023-01-21T21:01:16.060Z,9.38
2023-01-21T21:03:42.650Z,9.37
2023-01-21T21:06:25.073Z,9.39
2023-01-21T21:08:53.086Z,9.39
2023-01-21T21:11:20.079Z,9.30
2023-01-21T21:13:49.345Z,9.03
2023-01-21T21:16:19.858Z,8.77
2023-01-21T21:18:47.049Z,8.74
2023-01-21T21:21:14.680Z,8.87
2023-01-21T21:23:41.654Z,8.77
2023-01-21T21:26:29.540Z,8.81
2023-01-21T21:28:57.685Z,8.77
2023-01-21T21:31:26.449Z,8.74
2023-01-21T21:33:53.476Z,8.76
2023-01-21T21:36:23.508Z,8.71
2023-01-21T21:38:52.255Z,8.64
2023-01-21T21:41:42.681Z,8.67
2023-01-21T21:44:10.648Z,8.61
2023-01-21T21:46:56.554Z,8.63
2023-01-21T21:49:23.661Z,8.65
2023-01-21T21:51:50.227Z,8.54
2023-01-21T21:54:18.563Z,8.42
2023-01-21T21:56:45.829Z,8.43
2023-01-21T21:59:13.195Z,8.46
2023-01-21T22:01:41.017Z,8.51
2023-01-21T22:04:07.633Z,8.31
2023-01-21T22:06:34.256Z,8.37
2023-01-21T22:09:00.965Z,8.35
2023-01-21T22:11:28.921Z,8.40
2023-01-21T22:13:56.278Z,8.46
2023-01-21T22:16:24.519Z,8.49
2023-01-21T22:18:51.938Z,8.45
2023-01-21T22:21:28.682Z,8.43
2023-01-21T22:23:55.462Z,8.28
2023-01-21T22:26:24.623Z,8.30
2023-01-21T22:28:51.639Z,8.24
2023-01-21T22:31:22.724Z,8.32
2023-01-21T22:33:50.103Z,8.38
2023-01-21T22:36:18.297Z,8.36
2023-01-21T22:38:45.109Z,8.32
2023-01-21T22:41:16.631Z,8.28
2023-01-21T22:43:50.280Z,8.21
2023-01-21T22:46:26.363Z,8.11
2023-01-21T22:48:54.325Z,8.16
2023-01-21T22:51:22.253Z,8.13
2023-01-21T22:53:49.984Z,7.97
2023-01-21T22:56:19.172Z,7.88
2023-01-21T22:58:45.725Z,7.98
2023-01-21T23:01:29.904Z,8.04
2023-01-21T23:03:57.778Z,8.04
2023-01-21T23:06:25.263Z,8.14
2023-01-21T23:08:51.865Z,8.20
2023-01-21T23:11:19.572Z,8.21
2023-01-21T23:13:46.885Z,8.11
2023-01-21T23:16:15.207Z,8.19
2023-01-21T23:18:42.140Z,8.18
2023-01-21T23:21:12.284Z,8.23
2023-01-21T23:23:39.042Z,8.31
2023-01-21T23:26:08.323Z,8.36
2023-01-21T23:28:36.054Z,8.30
2023-01-21T23:31:09.416Z,8.32
2023-01-21T23:33:36.303Z,8.35
2023-01-21T23:36:03.026Z,8.42
2023-01-21T23:38:29.828Z,8.43
2023-01-21T23:40:57.314Z,8.39
2023-01-21T23:43:26.144Z,8.16
2023-01-21T23:45:53.783Z,8.11
2023-01-21T23:48:20.924Z,8.17
2023-01-21T23:50:47.560Z,8.21
2023-01-21T23:53:14.319Z,8.12
2023-01-21T23:55:40.882Z,8.14
2023-01-21T23:58:07.500Z,8.20
